Time;durP1;ratioP1;P1;durP2;ratioP2;P2;SDS_P1;SDS_P2;PMS_P1;PMS_P2;Temp;Humidity;BMP_temperature;BMP_pressure;BME280_temperature;BME280_humidity;BME280_pressure;Samples;Min_cycle;Max_cycle;Signal;HPM_P1;HPM_P2
2023/03/06 00:00:21;;;;;;;8.75;7.57;;;;;;;0.83;100.00;95024.16;4988249;28;24456;-75
2023/03/06 00:02:48;;;;;;;10.20;7.53;;;;;;;0.90;100.00;95025.59;4989714;28;24440;-74
2023/03/06 00:05:16;;;;;;;13.10;8.05;;;;;;;0.92;100.00;95020.41;4988675;28;24437;-74
2023/03/06 00:07:42;;;;;;;11.75;7.57;;;;;;;0.85;100.00;95014.72;4991283;28;24448;-74
2023/03/06 00:10:13;;;;;;;13.90;7.78;;;;;;;0.85;100.00;95021.53;4988614;28;24436;-74
2023/03/06 00:12:40;;;;;;;14.00;8.07;;;;;;;0.79;100.00;95014.97;4988540;28;24512;-73
2023/03/06 00:15:07;;;;;;;10.80;8.07;;;;;;;0.85;100.00;95008.78;4987541;28;24453;-74
2023/03/06 00:17:34;;;;;;;9.23;7.78;;;;;;;0.88;100.00;95001.84;4988287;28;24445;-74
2023/03/06 00:20:00;;;;;;;9.32;7.97;;;;;;;0.90;100.00;95004.38;4990759;28;24452;-74
2023/03/06 00:22:28;;;;;;;11.07;8.32;;;;;;;0.82;100.00;95002.09;4990522;28;24441;-74
2023/03/06 00:24:55;;;;;;;9.60;8.18;;;;;;;0.86;100.00;94996.00;4988174;28;24444;-74
2023/03/06 00:27:23;;;;;;;12.93;9.20;;;;;;;0.79;100.00;94993.75;4985486;28;24441;-74
2023/03/06 00:29:54;;;;;;;16.07;9.00;;;;;;;0.85;100.00;94996.88;4988999;28;24445;-74
2023/03/06 00:32:21;;;;;;;11.15;8.35;;;;;;;0.84;100.00;94997.75;4989462;28;24433;-74
2023/03/06 00:34:48;;;;;;;10.02;8.00;;;;;;;0.83;100.00;94996.09;4982358;28;24443;-74
2023/03/06 00:37:15;;;;;;;10.77;9.10;;;;;;;0.77;100.00;94986.13;4987544;28;24468;-74
2023/03/06 00:39:42;;;;;;;13.85;8.68;;;;;;;0.81;100.00;94985.13;4987781;28;24445;-74
2023/03/06 00:42:09;;;;;;;12.60;9.25;;;;;;;0.84;100.00;94981.66;4979094;28;24437;-74
2023/03/06 00:44:36;;;;;;;12.70;9.40;;;;;;;0.85;100.00;94979.03;4980742;28;24440;-74
2023/03/06 00:47:02;;;;;;;12.97;9.93;;;;;;;0.76;100.00;94976.84;4985734;28;24536;-74
2023/03/06 00:49:29;;;;;;;11.83;9.80;;;;;;;0.64;100.00;94985.78;4980100;28;24449;-73
2023/03/06 00:51:55;;;;;;;10.63;8.88;;;;;;;0.53;100.00;94981.94;4988768;28;24816;-74
2023/03/06 00:54:22;;;;;;;11.57;9.05;;;;;;;0.51;100.00;94971.81;4990652;28;24795;-74
2023/03/06 00:56:50;;;;;;;9.68;8.18;;;;;;;0.44;100.00;94973.72;4986296;28;24823;-74
2023/03/06 00:59:16;;;;;;;11.82;8.80;;;;;;;0.45;100.00;94967.78;4989884;28;24990;-74
2023/03/06 01:01:43;;;;;;;9.87;7.77;;;;;;;0.41;100.00;94960.31;4989254;28;24972;-74
2023/03/06 01:04:09;;;;;;;12.15;9.50;;;;;;;0.28;100.00;94967.53;4990590;28;25005;-74
2023/03/06 01:06:36;;;;;;;11.27;8.77;;;;;;;0.29;100.00;94969.19;4982147;28;24506;-74
2023/03/06 01:09:03;;;;;;;11.18;9.20;;;;;;;0.36;100.00;94973.19;4989689;28;24433;-74
2023/03/06 01:11:30;;;;;;;11.30;8.48;;;;;;;0.39;100.00;94965.44;4986839;28;24448;-74
2023/03/06 01:13:58;;;;;;;10.32;8.57;;;;;;;0.26;100.00;94963.38;4986287;28;24441;-74
2023/03/06 01:16:24;;;;;;;13.52;8.57;;;;;;;0.22;100.00;94957.56;4986065;28;24448;-74
2023/03/06 01:18:51;;;;;;;10.50;7.47;;;;;;;0.28;100.00;94962.44;4982258;28;24440;-74
2023/03/06 01:21:18;;;;;;;11.80;8.18;;;;;;;0.23;100.00;94954.16;4981542;28;24796;-74
2023/03/06 01:23:44;;;;;;;10.98;7.95;;;;;;;0.19;100.00;94958.53;4989773;28;24437;-74
2023/03/06 01:26:11;;;;;;;12.90;8.18;;;;;;;0.14;100.00;94952.75;4988571;28;24532;-74
2023/03/06 01:28:38;;;;;;;10.60;7.70;;;;;;;0.26;100.00;94946.41;4989022;28;24812;-74
2023/03/06 01:31:06;;;;;;;11.82;7.88;;;;;;;0.38;100.00;94940.84;4988636;28;24536;-74
2023/03/06 01:33:33;;;;;;;9.05;7.00;;;;;;;0.46;100.00;94933.75;4989711;28;24440;-74
2023/03/06 01:36:03;;;;;;;13.13;7.88;;;;;;;0.44;100.00;94932.16;4983769;28;24461;-74
2023/03/06 01:38:29;;;;;;;10.20;8.05;;;;;;;0.45;100.00;94934.66;4988950;28;25002;-74
2023/03/06 01:40:56;;;;;;;10.55;8.30;;;;;;;0.46;100.00;94940.56;4979523;28;25006;-74
2023/03/06 01:43:27;;;;;;;12.40;8.98;;;;;;;0.49;100.00;94930.28;4983426;28;24433;-74
2023/03/06 01:46:29;;;;;;;13.88;9.05;;;;;;;0.50;100.00;94931.94;4981071;28;24440;-74
2023/03/06 01:48:57;;;;;;;10.23;8.38;;;;;;;0.55;100.00;94921.56;4985601;28;24449;-74
2023/03/06 01:51:28;;;;;;;11.23;7.93;;;;;;;0.59;100.00;94923.94;4978198;28;24438;-74
2023/03/06 01:53:55;;;;;;;14.27;8.80;;;;;;;0.63;100.00;94915.31;4983845;28;25073;-73
2023/03/06 01:56:23;;;;;;;12.40;9.05;;;;;;;0.68;100.00;94905.75;4985942;28;24479;-74
2023/03/06 01:58:51;;;;;;;10.25;8.20;;;;;;;0.64;100.00;94904.22;4986780;28;24453;-75
2023/03/06 02:01:19;;;;;;;12.25;9.02;;;;;;;0.76;100.00;94892.72;4978095;28;24438;-74
2023/03/06 02:03:48;;;;;;;11.30;9.02;;;;;;;0.70;100.00;94896.34;4982970;28;24472;-74
2023/03/06 02:06:18;;;;;;;9.82;8.00;;;;;;;0.68;100.00;94899.84;4983431;28;24433;-74
2023/03/06 02:08:46;;;;;;;11.65;8.25;;;;;;;0.70;100.00;94900.59;4983109;28;24449;-74
2023/03/06 02:11:16;;;;;;;10.73;8.30;;;;;;;0.65;100.00;94902.50;4985471;28;24804;-74
2023/03/06 02:13:44;;;;;;;11.25;8.65;;;;;;;0.60;100.00;94889.13;4989996;28;24441;-74
2023/03/06 02:16:11;;;;;;;9.90;8.18;;;;;;;0.65;100.00;94877.84;4992649;28;24456;-74
2023/03/06 02:18:39;;;;;;;10.43;8.52;;;;;;;0.72;100.00;94874.16;4987107;28;24433;-74
2023/03/06 02:21:09;;;;;;;10.93;7.63;;;;;;;0.70;100.00;94870.88;4988853;28;24576;-74
2023/03/06 02:23:45;;;;;;;10.13;7.90;;;;;;;0.70;100.00;94870.88;4992996;28;24452;-73
2023/03/06 02:26:14;;;;;;;9.57;7.65;;;;;;;0.80;100.00;94870.50;4991070;28;24436;-74
2023/03/06 02:28:41;;;;;;;8.63;6.60;;;;;;;0.85;100.00;94868.59;4992466;28;24443;-74
2023/03/06 02:31:08;;;;;;;7.60;6.53;;;;;;;0.70;100.00;94870.00;4992328;28;25021;-75
2023/03/06 02:33:34;;;;;;;10.68;7.05;;;;;;;0.61;100.00;94863.56;4992276;28;24448;-74
2023/03/06 02:36:04;;;;;;;10.07;7.05;;;;;;;0.62;100.00;94857.56;4990318;28;24449;-74
2023/03/06 02:38:36;;;;;;;11.40;7.82;;;;;;;0.60;100.00;94856.81;4992564;28;24460;-74
2023/03/06 02:41:08;;;;;;;7.97;6.90;;;;;;;0.59;100.00;94852.59;4992178;28;24437;-74
2023/03/06 02:43:40;;;;;;;9.30;7.00;;;;;;;0.57;100.00;94854.38;4990713;28;24437;-74
2023/03/06 02:46:07;;;;;;;8.30;7.00;;;;;;;0.56;100.00;94860.38;4988014;28;24456;-74
2023/03/06 02:48:34;;;;;;;9.73;6.47;;;;;;;0.61;100.00;94855.09;4990271;28;24986;-74
2023/03/06 02:51:00;;;;;;;8.82;6.80;;;;;;;0.59;100.00;94849.22;4984497;28;24448;-74
2023/03/06 02:53:27;;;;;;;8.73;6.55;;;;;;;0.55;100.00;94851.06;4986413;28;24449;-74
2023/03/06 02:55:53;;;;;;;9.80;7.32;;;;;;;0.55;100.00;94853.59;4988210;28;25002;-74
2023/03/06 02:58:20;;;;;;;7.60;6.80;;;;;;;0.47;100.00;94853.88;4987116;28;24441;-74
2023/03/06 03:00:48;;;;;;;9.57;7.15;;;;;;;0.43;100.00;94846.44;4989117;28;24828;-75
2023/03/06 03:03:16;;;;;;;8.88;7.53;;;;;;;0.45;100.00;94842.13;4987156;28;24445;-75
2023/03/06 03:05:43;;;;;;;8.45;7.38;;;;;;;0.49;100.00;94848.75;4987163;28;24445;-75
2023/03/06 03:08:09;;;;;;;11.70;7.05;;;;;;;0.56;100.00;94841.72;4992299;28;24452;-75
2023/03/06 03:10:35;;;;;;;9.15;6.60;;;;;;;0.60;100.00;94841.53;4991778;28;24463;-75
2023/03/06 03:13:02;;;;;;;7.97;6.03;;;;;;;0.50;100.00;94836.84;4992385;28;24448;-75
2023/03/06 03:15:29;;;;;;;11.10;6.20;;;;;;;0.44;100.00;94838.72;4991867;28;24428;-74
2023/03/06 03:17:56;;;;;;;8.60;6.53;;;;;;;0.40;100.00;94836.34;4991238;28;24444;-74
2023/03/06 03:20:23;;;;;;;9.02;7.55;;;;;;;0.19;100.00;94843.94;4988388;28;24444;-74
2023/03/06 03:22:51;;;;;;;10.93;8.70;;;;;;;-0.19;100.00;94839.41;4986587;28;25041;-74
2023/03/06 03:25:18;;;;;;;9.68;7.82;;;;;;;-0.32;100.00;94841.56;4987907;28;24441;-74
2023/03/06 03:27:44;;;;;;;9.93;7.75;;;;;;;-0.41;100.00;94842.69;4991669;28;24994;-74
2023/03/06 03:30:12;;;;;;;10.65;7.78;;;;;;;-0.34;100.00;94840.75;4991353;28;24433;-74
2023/03/06 03:32:38;;;;;;;10.50;7.85;;;;;;;-0.29;100.00;94844.81;4985100;28;24800;-75
2023/03/06 03:35:09;;;;;;;11.10;7.55;;;;;;;-0.14;100.00;94829.91;4990157;28;24443;-74
2023/03/06 03:37:35;;;;;;;9.77;6.47;;;;;;;0.10;100.00;94834.06;4991067;28;24516;-74
2023/03/06 03:40:03;;;;;;;8.37;6.70;;;;;;;0.05;100.00;94828.34;4991381;28;24483;-74
2023/03/06 03:42:30;;;;;;;8.95;6.32;;;;;;;0.07;100.00;94825.72;4990740;28;24441;-74
2023/03/06 03:44:56;;;;;;;7.87;6.63;;;;;;;0.12;100.00;94836.56;4989932;28;24440;-74
2023/03/06 03:47:23;;;;;;;13.30;6.93;;;;;;;0.16;100.00;94830.47;4991494;28;24490;-74
2023/03/06 03:49:49;;;;;;;7.82;6.43;;;;;;;-0.01;100.00;94831.91;4988472;28;25341;-74
2023/03/06 03:52:17;;;;;;;11.85;7.22;;;;;;;-0.03;100.00;94823.53;4989134;28;24441;-74
2023/03/06 03:54:43;;;;;;;8.75;6.88;;;;;;;0.11;100.00;94819.63;4988892;28;24459;-74
2023/03/06 03:57:10;;;;;;;9.23;6.90;;;;;;;0.28;100.00;94817.28;4980649;28;24488;-74
2023/03/06 03:59:36;;;;;;;7.68;6.47;;;;;;;0.15;100.00;94821.16;4984296;28;24437;-74
2023/03/06 04:02:04;;;;;;;10.07;6.38;;;;;;;0.13;100.00;94813.59;4988093;28;24429;-75
2023/03/06 04:04:30;;;;;;;7.47;6.45;;;;;;;0.01;100.00;94810.69;4990239;28;24491;-75
2023/03/06 04:06:57;;;;;;;8.43;6.93;;;;;;;-0.11;100.00;94812.81;4983666;28;24433;-75
2023/03/06 04:09:26;;;;;;;8.57;6.85;;;;;;;-0.25;100.00;94820.94;4982056;28;22381;-74
2023/03/06 04:11:53;;;;;;;12.18;6.75;;;;;;;-0.28;100.00;94808.31;4988371;28;24436;-75
2023/03/06 04:14:19;;;;;;;8.35;6.72;;;;;;;-0.27;100.00;94804.88;4988531;28;24436;-74
2023/03/06 04:16:46;;;;;;;8.95;7.00;;;;;;;-0.20;100.00;94807.19;4990599;28;24461;-74
2023/03/06 04:19:12;;;;;;;8.05;6.78;;;;;;;-0.15;100.00;94806.16;4990671;28;24452;-74
2023/03/06 04:21:39;;;;;;;8.63;7.20;;;;;;;-0.15;100.00;94802.75;4989262;28;24448;-75
2023/03/06 04:24:06;;;;;;;8.60;7.07;;;;;;;-0.10;100.00;94793.25;4981625;28;25067;-75
2023/03/06 04:26:35;;;;;;;10.27;7.60;;;;;;;0.03;100.00;94793.63;4988393;28;24445;-74
2023/03/06 04:29:02;;;;;;;8.52;7.00;;;;;;;-0.10;100.00;94789.00;4980342;28;24461;-75
2023/03/06 04:31:29;;;;;;;9.15;7.00;;;;;;;-0.03;100.00;94790.44;4982657;28;24453;-75
2023/03/06 04:33:55;;;;;;;10.95;7.35;;;;;;;-0.20;100.00;94784.31;4990800;28;24445;-75
2023/03/06 04:36:27;;;;;;;10.02;8.00;;;;;;;-0.12;100.00;94789.94;4985756;28;24453;-75
2023/03/06 04:38:54;;;;;;;9.13;7.50;;;;;;;-0.26;100.00;94785.34;4984873;28;24461;-74
2023/03/06 04:41:20;;;;;;;10.10;7.75;;;;;;;-0.33;100.00;94784.75;4982562;28;24443;-74
2023/03/06 04:43:48;;;;;;;11.80;8.30;;;;;;;-0.17;100.00;94787.56;4985236;28;24437;-75
2023/03/06 04:46:15;;;;;;;15.13;9.50;;;;;;;-0.08;100.00;94779.56;4990137;28;24452;-74
2023/03/06 04:48:41;;;;;;;12.68;8.82;;;;;;;-0.12;100.00;94777.22;4987822;28;24441;-74
2023/03/06 04:51:08;;;;;;;11.27;8.02;;;;;;;-0.07;100.00;94770.25;4986272;28;24444;-74
2023/03/06 04:53:34;;;;;;;10.55;8.52;;;;;;;-0.09;100.00;94784.72;4988354;28;25021;-74
2023/03/06 04:56:01;;;;;;;12.57;8.98;;;;;;;-0.16;100.00;94775.66;4979041;28;24433;-74
2023/03/06 04:58:27;;;;;;;12.70;9.38;;;;;;;-0.13;100.00;94778.94;4980776;28;24464;-74
2023/03/06 05:00:55;;;;;;;14.60;9.73;;;;;;;-0.21;100.00;94778.38;4986655;28;24462;-74
2023/03/06 05:03:22;;;;;;;13.27;9.63;;;;;;;-0.26;100.00;94776.03;4989789;28;25004;-74
2023/03/06 05:05:48;;;;;;;11.32;9.68;;;;;;;-0.22;100.00;94775.88;4985793;28;24994;-74
2023/03/06 05:08:16;;;;;;;13.70;10.43;;;;;;;-0.22;100.00;94775.88;4990050;28;24804;-73
2023/03/06 05:10:43;;;;;;;14.40;9.77;;;;;;;-0.25;100.00;94771.75;4986896;28;25205;-73
2023/03/06 05:13:10;;;;;;;14.43;9.30;;;;;;;-0.22;100.00;94776.75;4989686;28;24436;-73
2023/03/06 05:15:36;;;;;;;9.35;8.25;;;;;;;-0.22;100.00;94775.88;4987022;28;24444;-72
2023/03/06 05:18:04;;;;;;;9.85;8.48;;;;;;;-0.21;100.00;94775.03;4985409;28;24456;-72
2023/03/06 05:20:31;;;;;;;13.82;9.88;;;;;;;-0.29;100.00;94780.38;4979335;28;24460;-73
2023/03/06 05:22:57;;;;;;;10.95;8.20;;;;;;;-0.46;100.00;94778.44;4981859;28;24441;-73
2023/03/06 05:25:24;;;;;;;11.05;7.72;;;;;;;-0.49;100.00;94776.81;4978494;28;24828;-72
2023/03/06 05:27:50;;;;;;;12.27;7.65;;;;;;;-0.55;100.00;94783.88;4987411;28;24815;-72
2023/03/06 05:30:17;;;;;;;9.98;8.15;;;;;;;-0.54;100.00;94781.25;4988102;28;24433;-73
2023/03/06 05:32:44;;;;;;;10.43;8.48;;;;;;;-0.55;100.00;94778.78;4984829;28;24449;-72
2023/03/06 05:35:17;;;;;;;13.85;8.80;;;;;;;-0.43;100.00;94782.59;4976441;28;24437;-73
2023/03/06 05:37:44;;;;;;;10.05;8.48;;;;;;;-0.39;100.00;94773.97;4982960;28;24460;-73
2023/03/06 05:40:11;;;;;;;12.50;8.90;;;;;;;-0.31;100.00;94760.06;4978415;28;24456;-73
2023/03/06 05:42:38;;;;;;;11.52;9.07;;;;;;;0.11;100.00;94761.06;4983980;28;24437;-73
2023/03/06 05:45:05;;;;;;;12.23;9.32;;;;;;;0.11;100.00;94763.59;4977551;28;24440;-74
2023/03/06 05:47:32;;;;;;;10.55;9.45;;;;;;;0.04;100.00;94760.50;4989886;28;24432;-74
2023/03/06 05:49:59;;;;;;;11.15;8.85;;;;;;;-0.05;100.00;94758.28;4985152;28;24438;-73
2023/03/06 05:52:27;;;;;;;13.70;9.80;;;;;;;-0.06;100.00;94761.72;4993280;28;24433;-73
2023/03/06 05:54:54;;;;;;;12.40;9.65;;;;;;;0.04;100.00;94763.03;4990482;28;25106;-74
2023/03/06 05:57:22;;;;;;;11.40;10.00;;;;;;;0.01;100.00;94770.78;4992154;28;24448;-74
2023/03/06 05:59:50;;;;;;;10.35;9.18;;;;;;;0.03;100.00;94768.16;4992220;28;24974;-74
2023/03/06 06:02:17;;;;;;;10.63;9.53;;;;;;;0.07;100.00;94767.16;4992879;28;24433;-74
2023/03/06 06:04:43;;;;;;;11.93;9.70;;;;;;;0.08;100.00;94768.84;4988365;28;24455;-74
2023/03/06 06:07:13;;;;;;;11.65;9.95;;;;;;;0.10;100.00;94764.50;4992171;28;25218;-74
2023/03/06 06:09:42;;;;;;;14.63;10.38;;;;;;;0.04;100.00;94770.69;4988271;28;24444;-73
2023/03/06 06:12:09;;;;;;;13.75;11.02;;;;;;;0.06;100.00;94763.78;4991608;28;25018;-73
2023/03/06 06:14:35;;;;;;;11.75;9.73;;;;;;;0.09;100.00;94761.13;4989907;28;24440;-74
2023/03/06 06:17:02;;;;;;;13.07;10.70;;;;;;;0.02;100.00;94763.97;4987608;28;24444;-73
2023/03/06 06:19:29;;;;;;;11.80;10.18;;;;;;;0.08;100.00;94763.75;4987771;28;24460;-75
2023/03/06 06:21:56;;;;;;;22.10;10.70;;;;;;;0.47;100.00;94753.72;4986377;28;24448;-74
2023/03/06 06:24:25;;;;;;;13.57;9.55;;;;;;;0.60;100.00;94760.00;4983008;28;24448;-74
2023/03/06 06:26:55;;;;;;;10.93;9.63;;;;;;;0.75;100.00;94760.28;4992672;28;24436;-77
2023/03/06 06:29:22;;;;;;;15.55;10.57;;;;;;;0.68;100.00;94762.22;4990505;28;24449;-76
2023/03/06 06:31:50;;;;;;;14.65;10.48;;;;;;;0.45;100.00;94770.78;4991752;28;24444;-76
2023/03/06 06:34:16;;;;;;;11.77;9.50;;;;;;;0.40;100.00;94770.13;4987716;28;24436;-76
2023/03/06 06:36:43;;;;;;;12.00;9.95;;;;;;;0.26;100.00;94767.28;4987842;28;24429;-76
2023/03/06 06:39:12;;;;;;;13.90;9.88;;;;;;;0.23;100.00;94769.06;4984228;28;24445;-76
2023/03/06 06:41:39;;;;;;;11.85;9.15;;;;;;;0.21;100.00;94772.56;4989197;28;24460;-76
2023/03/06 06:44:10;;;;;;;15.82;9.55;;;;;;;0.26;100.00;94774.94;4986677;28;24448;-77
2023/03/06 06:46:37;;;;;;;11.80;9.37;;;;;;;0.40;100.00;94777.78;4985037;28;24520;-77
2023/03/06 06:49:04;;;;;;;11.45;9.15;;;;;;;0.41;100.00;94770.09;4993472;28;24997;-76
2023/03/06 06:51:32;;;;;;;11.50;9.80;;;;;;;0.57;100.00;94775.41;4984839;28;24464;-76
2023/03/06 06:53:58;;;;;;;12.60;10.18;;;;;;;0.53;100.00;94771.31;4993085;28;25044;-77
2023/03/06 06:56:25;;;;;;;12.75;10.30;;;;;;;0.47;100.00;94782.56;4994401;28;24444;-77
2023/03/06 06:58:52;;;;;;;14.52;9.60;;;;;;;0.47;100.00;94777.47;4991887;28;24464;-76
2023/03/06 07:01:21;;;;;;;13.87;9.60;;;;;;;0.48;100.00;94784.25;4988030;28;24888;-78
2023/03/06 07:03:48;;;;;;;11.45;9.82;;;;;;;0.51;100.00;94788.38;4992496;28;24486;-76
2023/03/06 07:06:14;;;;;;;13.52;9.70;;;;;;;0.56;100.00;94788.22;4985472;28;24437;-77
2023/03/06 07:08:41;;;;;;;10.23;9.20;;;;;;;0.54;100.00;94795.06;4985667;28;24448;-76
2023/03/06 07:11:10;;;;;;;11.23;9.80;;;;;;;0.48;100.00;94796.13;4990200;28;24803;-77
2023/03/06 07:13:37;;;;;;;10.40;8.82;;;;;;;0.53;100.00;94799.34;4990636;28;24436;-76
2023/03/06 07:16:04;;;;;;;11.48;9.10;;;;;;;0.58;100.00;94794.06;4984009;28;24437;-77
2023/03/06 07:18:32;;;;;;;12.30;9.73;;;;;;;0.64;100.00;94796.38;4986611;28;24470;-76
2023/03/06 07:20:58;;;;;;;12.90;9.68;;;;;;;0.69;100.00;94810.56;4989209;28;24440;-77
2023/03/06 07:23:26;;;;;;;15.32;10.52;;;;;;;0.60;100.00;94807.59;4984532;28;24448;-77
2023/03/06 07:25:52;;;;;;;15.57;11.07;;;;;;;0.68;100.00;94803.00;4983444;28;24534;-76
2023/03/06 07:28:19;;;;;;;18.38;11.30;;;;;;;0.58;100.00;94814.44;4986893;28;24437;-76
2023/03/06 07:30:46;;;;;;;13.55;9.77;;;;;;;0.58;100.00;94804.25;4984585;28;24457;-76
2023/03/06 07:33:13;;;;;;;10.63;9.25;;;;;;;0.50;100.00;94802.00;4982489;28;24448;-76
2023/03/06 07:35:41;;;;;;;10.57;8.90;;;;;;;0.48;100.00;94807.16;4987326;28;24444;-75
2023/03/06 07:38:08;;;;;;;11.40;9.68;;;;;;;0.43;100.00;94810.78;4985285;28;24468;-77
2023/03/06 07:40:35;;;;;;;11.32;9.80;;;;;;;0.41;100.00;94812.56;4988141;28;24447;-77
2023/03/06 07:43:01;;;;;;;10.52;9.18;;;;;;;0.43;100.00;94808.22;4988471;28;24451;-76
2023/03/06 07:45:28;;;;;;;12.05;9.80;;;;;;;0.47;100.00;94810.59;4991558;28;24425;-77
2023/03/06 07:47:54;;;;;;;9.75;8.75;;;;;;;0.52;100.00;94807.03;4988271;28;24812;-76
2023/03/06 07:50:21;;;;;;;11.38;9.43;;;;;;;0.54;100.00;94806.09;4988485;28;24831;-76
2023/03/06 07:52:50;;;;;;;17.70;10.68;;;;;;;0.64;100.00;94814.22;4991030;28;24456;-76
2023/03/06 07:55:17;;;;;;;13.30;9.20;;;;;;;0.59;100.00;94809.28;4988895;28;24441;-76
2023/03/06 07:57:43;;;;;;;17.87;13.83;;;;;;;0.63;100.00;94808.28;4988307;28;24509;-77
2023/03/06 08:00:13;;;;;;;14.00;10.37;;;;;;;0.70;100.00;94809.72;4984550;28;24453;-75
2023/03/06 08:02:42;;;;;;;20.70;13.50;;;;;;;0.71;100.00;94805.44;4991241;28;24437;-76
2023/03/06 08:05:11;;;;;;;20.85;12.85;;;;;;;0.76;100.00;94811.16;4987966;28;24440;-76
2023/03/06 08:07:38;;;;;;;15.30;11.13;;;;;;;0.81;100.00;94808.44;4984531;28;24441;-76
2023/03/06 08:10:06;;;;;;;17.90;12.63;;;;;;;0.77;100.00;94804.34;4981683;28;25046;-77
2023/03/06 08:12:33;;;;;;;18.00;12.60;;;;;;;0.81;100.00;94803.31;4990168;28;24447;-77
2023/03/06 08:14:59;;;;;;;14.35;10.23;;;;;;;0.81;100.00;94808.44;4985446;28;24438;-76
2023/03/06 08:17:26;;;;;;;14.60;10.65;;;;;;;0.79;100.00;94811.06;4988084;28;24444;-75
2023/03/06 08:19:52;;;;;;;17.23;12.15;;;;;;;0.85;100.00;94812.50;4982922;28;24448;-74
2023/03/06 08:22:19;;;;;;;17.80;13.15;;;;;;;0.91;100.00;94815.66;4989850;28;24433;-74
2023/03/06 08:24:45;;;;;;;15.05;11.18;;;;;;;0.99;100.00;94814.50;4990371;28;24444;-74
2023/03/06 08:27:13;;;;;;;14.18;9.45;;;;;;;0.93;100.00;94821.53;4989646;28;24443;-74
2023/03/06 08:29:39;;;;;;;12.30;10.02;;;;;;;0.99;100.00;94820.44;4983332;28;24441;-74
2023/03/06 08:32:06;;;;;;;14.82;10.20;;;;;;;1.04;100.00;94823.66;4987659;28;24436;-75
2023/03/06 08:34:32;;;;;;;10.68;8.63;;;;;;;1.09;100.00;94821.72;4989610;28;24808;-75
2023/03/06 08:36:59;;;;;;;12.52;8.77;;;;;;;1.06;100.00;94821.03;4989436;28;24437;-76
2023/03/06 08:39:25;;;;;;;11.93;9.35;;;;;;;1.16;100.00;94812.09;4988010;28;24480;-76
2023/03/06 08:41:52;;;;;;;12.15;9.10;;;;;;;1.15;100.00;94815.53;4989587;28;24837;-77
2023/03/06 08:44:20;;;;;;;9.93;8.75;;;;;;;1.13;100.00;94819.88;4989338;28;24440;-76
2023/03/06 08:46:46;;;;;;;15.93;9.23;;;;;;;1.24;100.00;94824.53;4990935;28;24444;-76
2023/03/06 08:49:13;;;;;;;10.60;9.10;;;;;;;1.17;100.00;94823.97;4984677;28;24440;-76
2023/03/06 08:51:39;;;;;;;10.88;9.30;;;;;;;1.27;100.00;94824.41;4985963;28;24440;-76
2023/03/06 08:54:06;;;;;;;12.57;9.80;;;;;;;1.22;100.00;94824.59;4988057;28;24444;-76
2023/03/06 08:56:34;;;;;;;12.60;9.50;;;;;;;1.23;100.00;94821.16;4987139;28;25101;-76
2023/03/06 08:59:02;;;;;;;9.60;8.70;;;;;;;1.06;100.00;94826.13;4989836;28;24461;-77
2023/03/06 09:01:33;;;;;;;11.23;8.67;;;;;;;1.08;100.00;94825.16;4989916;28;24605;-76
2023/03/06 09:04:02;;;;;;;11.90;8.57;;;;;;;1.16;100.00;94822.31;4990462;28;24851;-76
2023/03/06 09:06:32;;;;;;;9.60;8.60;;;;;;;1.07;100.00;94823.50;4984945;28;24471;-75
2023/03/06 09:08:59;;;;;;;15.23;8.77;;;;;;;1.21;100.00;94823.75;4989831;28;24440;-75
2023/03/06 09:11:27;;;;;;;10.35;8.70;;;;;;;1.23;100.00;94833.09;4984711;28;24440;-75
2023/03/06 09:13:54;;;;;;;9.32;8.32;;;;;;;1.24;100.00;94834.75;4987287;28;24441;-75
2023/03/06 09:16:21;;;;;;;20.17;9.50;;;;;;;1.26;100.00;94841.44;4989461;28;24437;-75
2023/03/06 09:18:51;;;;;;;13.23;8.43;;;;;;;1.28;100.00;94833.72;4982753;28;24461;-75
2023/03/06 09:21:18;;;;;;;10.20;8.83;;;;;;;1.26;100.00;94838.91;4981730;28;24437;-75
2023/03/06 09:23:45;;;;;;;10.15;9.02;;;;;;;1.25;100.00;94841.50;4990335;28;24437;-74
2023/03/06 09:26:12;;;;;;;11.02;8.80;;;;;;;1.21;100.00;94844.16;4986809;28;24436;-75
2023/03/06 09:28:39;;;;;;;11.02;8.80;;;;;;;1.14;100.00;94847.03;4987256;28;24987;-75
2023/03/06 09:31:09;;;;;;;11.48;8.63;;;;;;;1.12;100.00;94844.56;4986093;28;24441;-74
2023/03/06 09:33:36;;;;;;;10.05;9.05;;;;;;;1.07;100.00;94843.06;4989206;28;24441;-73
2023/03/06 09:36:06;;;;;;;9.75;8.75;;;;;;;0.88;100.00;94846.34;4990243;28;24893;-75
2023/03/06 09:38:33;;;;;;;11.98;9.85;;;;;;;0.88;100.00;94843.81;4989928;28;24468;-75
2023/03/06 09:41:05;;;;;;;11.80;9.80;;;;;;;0.93;100.00;94848.75;4989530;28;24444;-76
2023/03/06 09:43:35;;;;;;;12.77;9.75;;;;;;;0.91;100.00;94842.88;4989019;28;24488;-73
2023/03/06 09:46:07;;;;;;;11.60;9.57;;;;;;;1.01;100.00;94846.72;4988721;28;24447;-73
2023/03/06 09:48:42;;;;;;;13.80;9.85;;;;;;;0.97;100.00;94847.72;4986231;28;24436;-76
2023/03/06 09:51:14;;;;;;;11.15;8.82;;;;;;;1.08;100.00;94849.84;4981574;28;24440;-74
2023/03/06 09:53:55;;;;;;;11.15;9.13;;;;;;;1.03;100.00;94847.47;4989212;28;24987;-73
2023/03/06 09:56:29;;;;;;;14.70;10.90;;;;;;;1.05;100.00;94839.78;4988347;28;24999;-73
2023/03/06 09:59:02;;;;;;;9.85;8.85;;;;;;;1.06;100.00;94844.78;4983735;28;25081;-74
2023/03/06 10:01:34;;;;;;;16.27;11.43;;;;;;;1.10;100.00;94837.84;4987144;28;24448;-74
2023/03/06 10:04:11;;;;;;;13.52;9.50;;;;;;;1.23;100.00;94845.84;4987228;28;24440;-74
2023/03/06 10:06:46;;;;;;;9.73;8.45;;;;;;;1.21;100.00;94841.63;4988191;28;25013;-74
2023/03/06 10:09:16;;;;;;;11.82;9.95;;;;;;;1.26;100.00;94848.25;4988596;28;25065;-74
2023/03/06 10:11:47;;;;;;;21.48;14.68;;;;;;;1.29;100.00;94850.69;4977970;28;24433;-74
2023/03/06 10:14:26;;;;;;;15.05;10.63;;;;;;;1.37;100.00;94844.38;4989456;28;24456;-75
2023/03/06 10:16:53;;;;;;;17.58;10.80;;;;;;;1.39;100.00;94839.19;4978862;28;24441;-76
2023/03/06 10:19:21;;;;;;;11.60;9.75;;;;;;;1.37;100.00;94846.06;4981227;28;24476;-74
2023/03/06 10:21:57;;;;;;;13.50;11.07;;;;;;;1.39;100.00;94840.03;4986808;28;24436;-75
2023/03/06 10:24:39;;;;;;;11.00;9.85;;;;;;;1.36;100.00;94844.44;4986757;28;24447;-76
2023/03/06 10:27:16;;;;;;;12.05;10.10;;;;;;;1.38;100.00;94845.22;4986539;28;24433;-75
2023/03/06 10:29:52;;;;;;;13.23;9.77;;;;;;;1.46;100.00;94843.16;4987972;28;24557;-76
2023/03/06 10:32:26;;;;;;;13.90;10.75;;;;;;;1.48;100.00;94837.97;4983997;28;24776;-76
2023/03/06 10:34:56;;;;;;;17.20;9.90;;;;;;;1.53;100.00;94841.19;4992830;28;24999;-76
2023/03/06 10:37:24;;;;;;;16.98;11.40;;;;;;;1.56;100.00;94841.03;4989873;28;24442;-76
2023/03/06 10:39:55;;;;;;;15.75;10.63;;;;;;;1.58;100.00;94840.06;4988546;28;24468;-76
2023/03/06 10:42:21;;;;;;;12.30;9.52;;;;;;;1.51;100.00;94841.22;4988198;28;24436;-75
2023/03/06 10:44:48;;;;;;;18.10;11.68;;;;;;;1.59;100.00;94831.50;4987957;28;24444;-74
2023/03/06 10:47:29;;;;;;;13.02;9.70;;;;;;;1.66;100.00;94837.19;4991852;28;24472;-74
2023/03/06 10:49:58;;;;;;;11.00;9.23;;;;;;;1.74;100.00;94835.13;4983417;28;24444;-74
2023/03/06 10:52:29;;;;;;;11.63;9.27;;;;;;;1.77;100.00;94841.84;4980534;28;24443;-75
2023/03/06 10:55:23;;;;;;;12.57;9.70;;;;;;;1.70;100.00;94838.72;4986950;28;24479;-75
2023/03/06 10:57:49;;;;;;;13.07;10.90;;;;;;;1.84;100.00;94838.94;4991555;28;24437;-75
2023/03/06 11:00:34;;;;;;;14.52;10.65;;;;;;;1.94;100.00;94834.28;4988831;28;24445;-75
2023/03/06 11:03:14;;;;;;;10.30;9.20;;;;;;;1.97;100.00;94844.38;4981162;28;24444;-75
2023/03/06 11:05:40;;;;;;;12.30;10.65;;;;;;;2.09;100.00;94843.81;4987765;28;24804;-73
2023/03/06 11:08:20;;;;;;;19.13;11.73;;;;;;;2.21;100.00;94834.78;4992097;28;24452;-73
2023/03/06 11:10:56;;;;;;;9.73;8.38;;;;;;;2.30;100.00;94834.38;4989804;28;24991;-73
2023/03/06 11:13:24;;;;;;;11.38;8.70;;;;;;;2.36;100.00;94835.81;4991945;28;24429;-74
2023/03/06 11:15:57;;;;;;;12.63;8.68;;;;;;;2.18;100.00;94824.69;4991671;28;24517;-73
2023/03/06 11:18:29;;;;;;;15.48;8.68;;;;;;;2.28;100.00;94817.44;4992454;28;24452;-73
2023/03/06 11:20:56;;;;;;;11.00;8.30;;;;;;;2.40;100.00;94825.38;4990419;28;24441;-73
2023/03/06 11:23:34;;;;;;;9.63;8.15;;;;;;;2.40;100.00;94824.53;4991270;28;24429;-74
2023/03/06 11:26:08;;;;;;;9.07;8.07;;;;;;;2.43;100.00;94822.66;4987543;28;24456;-74
2023/03/06 11:28:41;;;;;;;10.95;8.60;;;;;;;2.66;100.00;94816.47;4991797;28;24804;-74